Time;durP1;ratioP1;P1;durP2;ratioP2;P2;SDS_P1;SDS_P2;PMS_P1;PMS_P2;Temp;Humidity;BMP_temperature;BMP_pressure;BME280_temperature;BME280_humidity;BME280_pressure;Samples;Min_cycle;Max_cycle;Signal;HPM_P1;HPM_P2
2023/06/02 00:00:43;;;;;;;8.20;6.87;;;14.90;92.20;;;;;;10224290;28;20223;-74
2023/06/02 00:05:44;;;;;;;7.90;7.07;;;14.90;92.60;;;;;;10216482;28;20309;-74
2023/06/02 00:10:48;;;;;;;8.87;6.83;;;14.80;93.10;;;;;;10228853;28;20235;-75
2023/06/02 00:15:49;;;;;;;7.87;6.97;;;14.70;93.50;;;;;;10221555;28;20282;-73
2023/06/02 00:20:50;;;;;;;7.67;6.73;;;14.50;93.90;;;;;;10220369;28;20287;-74
2023/06/02 00:25:50;;;;;;;8.50;6.77;;;14.50;94.30;;;;;;10227706;28;20322;-74
2023/06/02 00:30:52;;;;;;;7.13;6.43;;;14.40;94.60;;;;;;10236731;28;20318;-74
2023/06/02 00:35:52;;;;;;;7.27;6.33;;;14.40;94.80;;;;;;10234954;28;20318;-76
2023/06/02 00:40:53;;;;;;;7.73;6.30;;;14.40;95.40;;;;;;10232401;28;20231;-74
2023/06/02 00:45:53;;;;;;;7.80;5.80;;;14.30;95.40;;;;;;10225509;28;20220;-74
2023/06/02 00:50:54;;;;;;;6.50;5.90;;;14.20;95.80;;;;;;10226307;28;20240;-75
2023/06/02 00:55:55;;;;;;;8.63;6.03;;;14.10;96.10;;;;;;10224724;28;20782;-74
2023/06/02 01:00:56;;;;;;;9.00;6.23;;;14.00;96.40;;;;;;10232914;28;20231;-70
2023/06/02 01:06:00;;;;;;;6.87;5.77;;;14.00;96.70;;;;;;10228725;28;20232;-70
2023/06/02 01:11:04;;;;;;;6.77;6.00;;;13.90;96.90;;;;;;10220925;28;20235;-68
2023/06/02 01:16:06;;;;;;;7.53;6.73;;;13.90;97.10;;;;;;10223829;28;20256;-69
2023/06/02 01:21:06;;;;;;;6.60;5.90;;;13.80;97.60;;;;;;10228858;28;20628;-69
2023/06/02 01:26:08;;;;;;;6.53;5.90;;;13.80;97.90;;;;;;10223235;28;20235;-69
2023/06/02 01:31:17;;;;;;;6.47;5.80;;;13.70;98.20;;;;;;10233648;28;20964;-69
2023/06/02 01:36:21;;;;;;;7.90;6.13;;;13.70;98.50;;;;;;10228107;28;20231;-68
2023/06/02 01:41:23;;;;;;;6.53;5.53;;;13.70;98.70;;;;;;10233247;28;20242;-69
2023/06/02 01:46:25;;;;;;;8.00;6.10;;;13.60;98.90;;;;;;10227248;28;20757;-70
2023/06/02 01:51:26;;;;;;;7.13;5.63;;;13.60;99.20;;;;;;10224875;28;20235;-69
2023/06/02 01:56:26;;;;;;;9.53;5.63;;;13.50;99.60;;;;;;10227230;28;20302;-68
2023/06/02 02:01:27;;;;;;;7.07;5.73;;;13.50;99.90;;;;;;10233574;28;20913;-69
2023/06/02 02:06:37;;;;;;;7.23;6.33;;;13.40;99.90;;;;;;10218631;28;20220;-70
2023/06/02 02:11:37;;;;;;;7.07;5.73;;;13.40;99.90;;;;;;10220973;28;20326;-70
2023/06/02 02:16:38;;;;;;;8.40;5.90;;;13.50;99.90;;;;;;10226450;28;20620;-70
2023/06/02 02:21:40;;;;;;;7.60;5.90;;;13.30;99.90;;;;;;10225397;28;20250;-69
2023/06/02 02:26:40;;;;;;;9.40;6.80;;;13.30;99.90;;;;;;10226365;28;20219;-68
2023/06/02 02:31:41;;;;;;;9.33;6.53;;;13.30;99.90;;;;;;10225671;28;20244;-70
2023/06/02 02:36:44;;;;;;;7.10;5.70;;;13.30;99.90;;;;;;10231758;28;20226;-70
2023/06/02 02:41:48;;;;;;;7.93;6.10;;;13.20;99.90;;;;;;10225231;28;20238;-69
2023/06/02 02:46:48;;;;;;;10.70;6.00;;;13.20;99.90;;;;;;10219399;28;20224;-69
2023/06/02 02:51:49;;;;;;;8.57;6.03;;;13.20;99.90;;;;;;10222833;28;20232;-69
2023/06/02 02:56:50;;;;;;;7.83;6.17;;;13.10;99.90;;;;;;10224477;28;20254;-69
2023/06/02 03:01:50;;;;;;;7.40;6.50;;;13.10;99.90;;;;;;10228915;28;20246;-70
2023/06/02 03:06:53;;;;;;;7.10;6.40;;;13.10;99.90;;;;;;10220336;28;20227;-69
2023/06/02 03:11:57;;;;;;;8.67;6.63;;;13.00;99.90;;;;;;10222035;28;20236;-68
2023/06/02 03:16:58;;;;;;;9.20;6.60;;;13.00;99.90;;;;;;10219379;28;20258;-68
2023/06/02 03:21:58;;;;;;;8.33;6.27;;;12.90;99.90;;;;;;10226565;28;20250;-69
2023/06/02 03:26:59;;;;;;;10.03;6.37;;;12.90;99.90;;;;;;10219015;28;20235;-69
2023/06/02 03:32:00;;;;;;;9.70;6.63;;;12.80;99.90;;;;;;10231214;28;20593;-70
2023/06/02 03:37:01;;;;;;;7.60;6.60;;;12.80;99.90;;;;;;10226990;28;20228;-69
2023/06/02 03:42:02;;;;;;;7.53;6.57;;;12.90;99.90;;;;;;10219517;28;20241;-69
2023/06/02 03:47:03;;;;;;;9.67;6.73;;;12.80;99.90;;;;;;10226349;28;20223;-69
2023/06/02 03:52:04;;;;;;;8.37;6.30;;;12.80;99.90;;;;;;10220179;28;20263;-69
2023/06/02 03:57:05;;;;;;;8.40;6.40;;;12.80;99.90;;;;;;10231704;28;20691;-70
2023/06/02 04:02:07;;;;;;;10.07;5.47;;;12.90;99.90;;;;;;10234150;28;20246;-69
2023/06/02 04:07:07;;;;;;;9.57;6.13;;;13.00;99.90;;;;;;10233128;28;20268;-68
2023/06/02 04:12:08;;;;;;;7.70;5.90;;;13.10;99.90;;;;;;10229404;28;20691;-70
2023/06/02 04:17:09;;;;;;;7.97;6.63;;;13.20;99.90;;;;;;10226544;28;20231;-69
2023/06/02 04:22:10;;;;;;;9.43;7.03;;;13.40;99.90;;;;;;10224321;28;20224;-70
2023/06/02 04:27:10;;;;;;;8.10;5.70;;;13.50;99.90;;;;;;10239052;28;20212;-69
2023/06/02 04:32:11;;;;;;;12.37;6.23;;;13.70;99.90;;;;;;10229149;28;20310;-69
2023/06/02 04:37:12;;;;;;;12.30;6.37;;;13.80;99.90;;;;;;10228238;28;20215;-68
2023/06/02 04:42:13;;;;;;;11.17;5.67;;;14.20;99.90;;;;;;10223309;28;20237;-69
2023/06/02 04:47:14;;;;;;;8.87;6.13;;;14.40;99.90;;;;;;10230677;28;20234;-69
2023/06/02 04:52:15;;;;;;;10.10;5.63;;;14.50;99.90;;;;;;10235777;28;20226;-69
2023/06/02 04:57:15;;;;;;;9.67;5.90;;;14.80;99.70;;;;;;10219050;28;20224;-70
2023/06/02 05:02:16;;;;;;;9.30;5.60;;;15.20;98.10;;;;;;10227673;28;20223;-69
2023/06/02 05:07:17;;;;;;;9.43;5.37;;;16.20;94.90;;;;;;10244206;28;20219;-70
2023/06/02 05:12:18;;;;;;;11.13;5.57;;;17.40;90.60;;;;;;10226089;28;20219;-69
2023/06/02 05:17:23;;;;;;;7.17;4.50;;;17.20;88.00;;;;;;10226193;28;20217;-70
2023/06/02 05:22:24;;;;;;;7.93;5.00;;;17.40;86.60;;;;;;10227536;28;20306;-69
2023/06/02 05:27:25;;;;;;;10.40;5.00;;;17.50;85.60;;;;;;10219550;28;20334;-69
2023/06/02 05:32:26;;;;;;;8.37;5.00;;;17.90;82.50;;;;;;10225557;28;20222;-69
2023/06/02 05:37:26;;;;;;;8.93;4.73;;;17.60;83.20;;;;;;10229573;28;20220;-70
2023/06/02 05:42:27;;;;;;;10.50;5.00;;;18.30;81.00;;;;;;10232643;28;20695;-69
2023/06/02 05:47:30;;;;;;;11.10;5.63;;;19.30;74.70;;;;;;10219098;28;20232;-69
2023/06/02 05:52:30;;;;;;;5.77;3.80;;;20.10;70.60;;;;;;10216827;28;20224;-70
2023/06/02 05:57:31;;;;;;;10.07;4.20;;;20.60;70.10;;;;;;10226537;28;20233;-69
2023/06/02 06:02:32;;;;;;;10.03;5.17;;;21.90;64.60;;;;;;10232591;28;20215;-69
2023/06/02 06:07:33;;;;;;;7.53;4.73;;;21.30;62.80;;;;;;10224226;28;20235;-71
2023/06/02 06:12:33;;;;;;;9.00;4.57;;;21.10;63.10;;;;;;10224980;28;20221;-69
2023/06/02 06:17:34;;;;;;;8.63;4.60;;;21.50;63.90;;;;;;10225333;28;20226;-69
2023/06/02 06:22:35;;;;;;;7.80;4.10;;;22.70;58.70;;;;;;10225580;28;20243;-70
2023/06/02 06:27:36;;;;;;;8.17;4.80;;;23.20;56.60;;;;;;10217943;28;20690;-70
2023/06/02 06:32:37;;;;;;;7.93;4.90;;;22.40;57.90;;;;;;10239255;28;20229;-71
2023/06/02 06:37:38;;;;;;;10.70;5.10;;;21.90;58.80;;;;;;10225644;28;20686;-69
2023/06/02 06:42:39;;;;;;;9.90;4.80;;;21.50;59.10;;;;;;10224055;28;20247;-70
2023/06/02 06:47:40;;;;;;;6.23;4.07;;;22.10;58.40;;;;;;10232791;28;20232;-71
2023/06/02 06:52:45;;;;;;;8.07;4.60;;;23.90;55.10;;;;;;10223288;28;20798;-71
2023/06/02 06:57:46;;;;;;;10.23;5.07;;;24.80;53.20;;;;;;10216673;28;20239;-70
2023/06/02 07:02:48;;;;;;;8.03;4.00;;;24.50;51.90;;;;;;10221926;28;20307;-68
2023/06/02 07:07:49;;;;;;;7.73;4.73;;;24.90;51.90;;;;;;10218216;28;20235;-71
2023/06/02 07:12:57;;;;;;;8.53;4.70;;;24.80;51.10;;;;;;10220913;28;20810;-69
2023/06/02 07:17:57;;;;;;;8.00;4.33;;;23.80;53.60;;;;;;10219003;28;20249;-69
2023/06/02 07:22:58;;;;;;;8.30;5.17;;;27.10;49.30;;;;;;10260434;28;20229;-70
2023/06/02 07:27:59;;;;;;;5.87;4.23;;;27.90;45.40;;;;;;10216123;28;20231;-69
2023/06/02 07:32:59;;;;;;;7.90;4.67;;;27.40;47.10;;;;;;10226108;28;20715;-70
2023/06/02 07:38:00;;;;;;;6.67;4.77;;;27.30;46.40;;;;;;10224092;28;20273;-69
2023/06/02 07:43:02;;;;;;;10.03;4.97;;;26.40;47.60;;;;;;10219128;28;20247;-69
2023/06/02 07:48:03;;;;;;;5.63;4.00;;;27.20;46.10;;;;;;10218873;28;20267;-69
2023/06/02 07:53:03;;;;;;;8.37;4.17;;;28.70;44.50;;;;;;10218876;28;20223;-70
2023/06/02 07:58:04;;;;;;;7.77;4.27;;;29.70;42.70;;;;;;10229256;28;20696;-70
2023/06/02 08:03:08;;;;;;;7.20;3.80;;;31.00;40.30;;;;;;10227502;28;20214;-71
2023/06/02 08:08:09;;;;;;;9.47;4.07;;;30.90;40.30;;;;;;10217828;28;20319;-70
2023/06/02 08:13:11;;;;;;;6.83;3.13;;;30.90;40.30;;;;;;10226726;28;20220;-69
2023/06/02 08:18:15;;;;;;;7.43;3.30;;;31.80;38.80;;;;;;10229238;28;20246;-70
2023/06/02 08:23:17;;;;;;;6.80;3.57;;;32.00;37.60;;;;;;10222973;28;20285;-70
2023/06/02 08:28:24;;;;;;;6.33;3.40;;;31.20;38.50;;;;;;10215785;28;20279;-69
2023/06/02 08:33:25;;;;;;;8.33;4.20;;;29.80;39.40;;;;;;10228858;28;20698;-71
2023/06/02 08:38:29;;;;;;;6.03;3.83;;;29.70;39.50;;;;;;10222254;28;20231;-69
2023/06/02 08:43:30;;;;;;;6.13;3.13;;;31.10;38.10;;;;;;10233790;28;20283;-69
2023/06/02 08:48:36;;;;;;;6.37;4.10;;;32.00;37.90;;;;;;10226630;28;20231;-69
2023/06/02 08:53:39;;;;;;;6.50;3.57;;;29.70;38.60;;;;;;10221191;28;20228;-71
2023/06/02 08:58:40;;;;;;;5.83;3.07;;;28.80;39.50;;;;;;10227159;28;20223;-71
2023/06/02 09:03:40;;;;;;;7.13;3.50;;;28.80;41.40;;;;;;10221668;28;20714;-71
2023/06/02 09:09:00;;;;;;;7.30;3.70;;;29.40;39.90;;;;;;10226050;28;20263;-69
2023/06/02 09:14:19;;;;;;;7.57;3.67;;;30.70;38.50;;;;;;10224406;28;20219;-70
2023/06/02 09:19:19;;;;;;;6.97;3.37;;;31.00;38.20;;;;;;10221308;28;20325;-70
2023/06/02 09:24:32;;;;;;;4.83;3.33;;;29.60;37.20;;;;;;10233477;28;20276;-70
2023/06/02 09:29:37;;;;;;;6.90;3.40;;;28.80;39.00;;;;;;10219747;28;20232;-70
2023/06/02 09:34:38;;;;;;;5.37;3.27;;;28.20;40.20;;;;;;10227147;28;20223;-70
2023/06/02 09:39:48;;;;;;;6.33;3.10;;;28.50;40.70;;;;;;10231916;28;20227;-69
2023/06/02 09:45:06;;;;;;;9.67;3.07;;;31.80;35.80;;;;;;10225143;28;20254;-70
2023/06/02 09:50:08;;;;;;;6.53;2.83;;;32.40;35.60;;;;;;10231617;28;20235;-70
2023/06/02 09:55:09;;;;;;;5.70;3.30;;;32.20;34.90;;;;;;10223300;28;20172;-71
2023/06/02 10:00:11;;;;;;;7.53;2.70;;;33.40;33.40;;;;;;10220731;28;20192;-71
2023/06/02 10:05:12;;;;;;;7.83;2.80;;;33.80;34.10;;;;;;10231337;28;20184;-70
2023/06/02 10:10:21;;;;;;;6.60;3.00;;;36.40;31.30;;;;;;10230708;28;20222;-69
2023/06/02 10:15:40;;;;;;;6.43;2.93;;;35.40;31.30;;;;;;10219016;28;20296;-69
2023/06/02 10:20:53;;;;;;;8.70;3.20;;;34.50;31.90;;;;;;10218983;28;20307;-69
2023/06/02 10:26:21;;;;;;;7.07;3.03;;;35.50;31.60;;;;;;10222576;28;20350;-69
2023/06/02 10:31:31;;;;;;;6.50;2.93;;;34.40;31.60;;;;;;10232128;28;20234;-71
2023/06/02 10:37:00;;;;;;;9.30;3.00;;;32.80;34.10;;;;;;10220626;28;20244;-70
2023/06/02 10:42:14;;;;;;;7.33;2.77;;;33.00;33.80;;;;;;10231577;28;20235;-71
2023/06/02 10:47:18;;;;;;;8.27;2.70;;;34.80;32.30;;;;;;10223641;28;20699;-70
2023/06/02 10:52:20;;;;;;;7.83;3.07;;;35.40;30.50;;;;;;10224495;28;20302;-70
2023/06/02 10:57:49;;;;;;;8.17;2.93;;;35.60;30.40;;;;;;10224806;28;20627;-70
2023/06/02 11:02:49;;;;;;;9.97;3.20;;;33.60;31.90;;;;;;10218345;28;20227;-70
2023/06/02 11:08:15;;;;;;;4.43;2.87;;;34.00;31.90;;;;;;10221913;28;20235;-70
2023/06/02 11:13:23;;;;;;;3.67;2.60;;;34.80;31.00;;;;;;10222051;28;20235;-70
2023/06/02 11:18:25;;;;;;;6.57;3.23;;;33.40;32.70;;;;;;10222139;28;20260;-70
2023/06/02 11:23:32;;;;;;;4.90;2.90;;;32.90;32.70;;;;;;10224749;28;20226;-70
2023/06/02 11:28:33;;;;;;;6.07;2.80;;;33.80;32.20;;;;;;10216802;28;20232;-70
2023/06/02 11:33:36;;;;;;;7.37;2.93;;;33.70;32.10;;;;;;10223214;28;20591;-70
2023/06/02 11:38:38;;;;;;;6.17;3.30;;;33.10;32.70;;;;;;10224098;28;20413;-70
2023/06/02 11:43:41;;;;;;;8.13;3.20;;;29.50;37.20;;;;;;10227946;28;20228;-69
2023/06/02 11:48:43;;;;;;;7.93;3.20;;;27.00;40.90;;;;;;10221775;28;20315;-69
2023/06/02 11:54:02;;;;;;;6.83;3.70;;;25.40;43.90;;;;;;10217286;28;20223;-69
2023/06/02 11:59:16;;;;;;;8.87;2.87;;;24.30;45.60;;;;;;10227535;28;20235;-70
2023/06/02 12:04:20;;;;;;;10.03;3.03;;;24.00;46.50;;;;;;10227927;28;20579;-69
2023/06/02 12:09:21;;;;;;;9.07;3.30;;;24.00;46.60;;;;;;10222941;28;20745;-69
2023/06/02 12:14:21;;;;;;;10.10;2.97;;;23.80;47.90;;;;;;10223332;28;20231;-69
2023/06/02 12:19:22;;;;;;;7.00;3.10;;;23.80;47.80;;;;;;10229092;28;20223;-70
2023/06/02 12:24:30;;;;;;;4.00;2.60;;;23.60;48.10;;;;;;10229507;28;20239;-70
2023/06/02 12:29:30;;;;;;;7.67;3.17;;;23.60;49.00;;;;;;10227714;28;20234;-70
2023/06/02 12:34:31;;;;;;;5.10;2.93;;;23.40;49.00;;;;;;10237321;28;20713;-69
2023/06/02 12:39:34;;;;;;;9.27;3.00;;;23.20;49.60;;;;;;10221000;28;20319;-69
2023/06/02 12:44:34;;;;;;;6.17;3.30;;;23.10;49.10;;;;;;10236895;28;20231;-70
2023/06/02 12:49:36;;;;;;;6.83;3.40;;;23.00;50.20;;;;;;10232455;28;20235;-70
2023/06/02 12:54:37;;;;;;;8.93;2.90;;;22.80;50.70;;;;;;10228955;28;20578;-70
2023/06/02 12:59:37;;;;;;;9.20;3.57;;;23.00;50.70;;;;;;10228518;28;20230;-70
2023/06/02 13:04:38;;;;;;;7.93;3.43;;;23.10;50.70;;;;;;10227398;28;20762;-69
2023/06/02 13:09:38;;;;;;;8.50;3.30;;;23.10;50.40;;;;;;10228452;28;20263;-70
2023/06/02 13:14:39;;;;;;;10.13;2.97;;;22.60;50.80;;;;;;10227074;28;20219;-68
2023/06/02 13:19:41;;;;;;;11.47;3.00;;;22.70;51.60;;;;;;10219825;28;20234;-70
2023/06/02 13:24:42;;;;;;;7.93;3.40;;;22.70;50.60;;;;;;10230468;28;20247;-69
2023/06/02 13:29:43;;;;;;;7.17;3.00;;;22.50;51.70;;;;;;10227754;28;20282;-69
2023/06/02 13:34:57;;;;;;;5.13;2.67;;;22.60;52.70;;;;;;10227270;28;20760;-69
2023/06/02 13:39:57;;;;;;;9.07;3.10;;;22.80;50.80;;;;;;10223106;28;20312;-70
2023/06/02 13:44:58;;;;;;;7.00;3.10;;;22.50;51.40;;;;;;10226632;28;20338;-70
2023/06/02 13:49:58;;;;;;;8.73;3.03;;;22.60;51.50;;;;;;10233308;28;20310;-70
2023/06/02 13:54:59;;;;;;;8.30;2.80;;;22.60;51.30;;;;;;10223623;28;20226;-69
2023/06/02 14:00:00;;;;;;;5.70;2.43;;;22.40;51.00;;;;;;10229520;28;20319;-70
2023/06/02 14:05:00;;;;;;;6.90;3.17;;;22.40;49.20;;;;;;10221658;28;20219;-70
2023/06/02 14:10:04;;;;;;;7.27;2.60;;;22.60;49.10;;;;;;10232930;28;20738;-68
2023/06/02 14:15:05;;;;;;;10.87;2.93;;;22.60;50.50;;;;;;10225743;28;20216;-68
2023/06/02 14:20:07;;;;;;;7.10;2.50;;;22.20;51.30;;;;;;10228599;28;20334;-69
2023/06/02 14:25:08;;;;;;;7.40;2.60;;;22.30;50.00;;;;;;10229569;28;20808;-69
2023/06/02 14:30:09;;;;;;;8.00;2.90;;;22.30;51.60;;;;;;10230375;28;20245;-69
2023/06/02 14:35:12;;;;;;;5.67;2.67;;;22.20;52.60;;;;;;10220392;28;20180;-70
2023/06/02 14:40:13;;;;;;;8.93;2.83;;;22.30;53.00;;;;;;10230232;28;20659;-69
2023/06/02 14:45:14;;;;;;;9.07;3.47;;;22.50;52.20;;;;;;10224711;28;20193;-71
2023/06/02 14:50:14;;;;;;;7.43;2.73;;;22.60;52.40;;;;;;10222736;28;20274;-71
2023/06/02 14:55:15;;;;;;;7.20;2.83;;;22.70;51.70;;;;;;10231227;28;20183;-69
2023/06/02 15:00:16;;;;;;;6.87;2.83;;;22.60;52.40;;;;;;10219241;28;20186;-69
2023/06/02 15:05:17;;;;;;;12.47;3.47;;;22.50;53.20;;;;;;10223096;28;20184;-70
2023/06/02 15:10:17;;;;;;;7.00;2.87;;;22.60;53.10;;;;;;10218078;28;20212;-69
2023/06/02 15:15:18;;;;;;;8.00;2.93;;;22.40;53.10;;;;;;10229225;28;20188;-70
2023/06/02 15:20:19;;;;;;;8.40;3.07;;;22.40;53.60;;;;;;10217648;28;20214;-70
2023/06/02 15:25:20;;;;;;;8.67;3.70;;;22.60;53.50;;;;;;10228973;28;20831;-69
2023/06/02 15:30:21;;;;;;;7.07;2.80;;;22.60;53.80;;;;;;10230486;28;20217;-69
2023/06/02 15:35:21;;;;;;;8.40;2.80;;;22.50;53.20;;;;;;10217296;28;20186;-69
2023/06/02 15:40:22;;;;;;;7.67;3.87;;;22.50;52.40;;;;;;10221367;28;20214;-69
2023/06/02 15:45:22;;;;;;;7.43;3.07;;;22.30;52.50;;;;;;10230882;28;20180;-70
2023/06/02 15:50:23;;;;;;;7.87;3.20;;;22.10;53.50;;;;;;10222573;28;20211;-69
2023/06/02 15:55:24;;;;;;;12.07;3.10;;;22.20;53.30;;;;;;10216505;28;20199;-68
2023/06/02 16:00:26;;;;;;;9.53;3.20;;;22.20;51.90;;;;;;10230410;28;20258;-70
2023/06/02 16:05:26;;;;;;;7.00;2.83;;;22.10;51.80;;;;;;10230331;28;20223;-69
2023/06/02 16:10:27;;;;;;;5.83;2.70;;;22.10;50.50;;;;;;10216363;28;20250;-70
2023/06/02 16:15:27;;;;;;;5.00;2.70;;;22.20;50.90;;;;;;10222684;28;20224;-68
2023/06/02 16:20:28;;;;;;;8.73;2.63;;;22.20;46.30;;;;;;10215036;28;20220;-69
2023/06/02 16:25:29;;;;;;;7.53;2.67;;;22.10;46.40;;;;;;10222797;28;20888;-70
2023/06/02 16:30:29;;;;;;;3.03;2.23;;;21.90;45.10;;;;;;10237016;28;20227;-69
2023/06/02 16:35:30;;;;;;;7.93;2.77;;;21.90;44.10;;;;;;10213894;28;20678;-68
2023/06/02 16:40:30;;;;;;;4.83;2.63;;;21.80;44.50;;;;;;10228591;28;20235;-71
2023/06/02 16:45:31;;;;;;;6.27;2.80;;;21.90;46.00;;;;;;10221739;28;20231;-70
2023/06/02 16:50:33;;;;;;;7.00;2.77;;;21.90;45.70;;;;;;10218294;28;20320;-70
2023/06/02 16:55:34;;;;;;;7.27;2.63;;;21.80;44.90;;;;;;10213726;28;20250;-69
2023/06/02 17:00:34;;;;;;;5.27;2.60;;;21.60;45.10;;;;;;10226961;28;20253;-69
2023/06/02 17:05:35;;;;;;;5.90;2.50;;;21.50;45.10;;;;;;10218702;28;20219;-69
2023/06/02 17:10:35;;;;;;;10.30;2.80;;;21.50;44.00;;;;;;10227188;28;20254;-69
2023/06/02 17:15:36;;;;;;;5.30;2.70;;;21.50;44.90;;;;;;10227094;28;20231;-70
2023/06/02 17:20:36;;;;;;;7.57;3.10;;;21.50;45.00;;;;;;10233099;28;20258;-70
2023/06/02 17:25:37;;;;;;;6.90;2.57;;;21.30;46.30;;;;;;10220552;28;20223;-70
2023/06/02 17:30:38;;;;;;;6.40;3.13;;;21.20;47.20;;;;;;10226293;28;20239;-70
2023/06/02 17:35:39;;;;;;;7.00;3.00;;;21.20;47.80;;;;;;10220316;28;20224;-70
2023/06/02 17:40:41;;;;;;;7.00;2.97;;;21.20;48.50;;;;;;10230677;28;20311;-70
2023/06/02 17:45:41;;;;;;;10.07;3.40;;;21.10;48.50;;;;;;10234866;28;20770;-69
2023/06/02 17:50:42;;;;;;;10.60;4.43;;;21.10;49.30;;;;;;10225644;28;20231;-69
2023/06/02 17:55:42;;;;;;;8.93;3.67;;;21.00;49.80;;;;;;10220591;28;20232;-69
2023/06/02 18:00:43;;;;;;;6.23;3.40;;;20.90;50.80;;;;;;10238735;28;20306;-70
2023/06/02 18:05:44;;;;;;;6.77;2.80;;;20.80;51.50;;;;;;10220563;28;20342;-70
2023/06/02 18:10:44;;;;;;;5.60;3.53;;;20.70;52.10;;;;;;10224170;28;20227;-69
2023/06/02 18:15:45;;;;;;;5.43;3.53;;;20.70;52.60;;;;;;10226185;28;20227;-70
2023/06/02 18:20:46;;;;;;;9.23;3.57;;;20.60;53.10;;;;;;10222723;28;20758;-69
2023/06/02 18:25:47;;;;;;;6.40;3.90;;;20.50;53.90;;;;;;10225024;28;20327;-68
2023/06/02 18:30:47;;;;;;;9.10;3.23;;;20.30;54.50;;;;;;10225724;28;20790;-69
2023/06/02 18:35:48;;;;;;;7.53;4.20;;;20.20;55.00;;;;;;10223272;28;20227;-68
2023/06/02 18:40:48;;;;;;;6.13;3.10;;;20.20;55.70;;;;;;10226858;28;20244;-69
2023/06/02 18:45:49;;;;;;;7.03;3.70;;;20.10;55.60;;;;;;10222909;28;20739;-71
2023/06/02 18:50:50;;;;;;;5.57;3.00;;;20.00;55.80;;;;;;10229706;28;20239;-70
2023/06/02 18:55:50;;;;;;;7.70;3.20;;;19.80;55.60;;;;;;10219292;28;20234;-69
2023/06/02 19:00:51;;;;;;;7.40;3.20;;;19.70;56.10;;;;;;10222023;28;20231;-70
2023/06/02 19:05:58;;;;;;;8.00;3.20;;;19.60;56.70;;;;;;10218135;28;20234;-69
2023/06/02 19:10:59;;;;;;;7.83;3.23;;;19.50;57.20;;;;;;10227693;28;20258;-69
2023/06/02 19:15:59;;;;;;;7.03;3.43;;;19.30;58.00;;;;;;10227283;28;20230;-69
2023/06/02 19:21:02;;;;;;;5.10;3.13;;;19.20;58.60;;;;;;10220668;28;20238;-69
2023/06/02 19:26:03;;;;;;;5.20;3.07;;;19.10;59.20;;;;;;10219747;28;20255;-70
2023/06/02 19:31:04;;;;;;;4.63;3.27;;;19.00;60.20;;;;;;10233753;28;20334;-70
2023/06/02 19:36:05;;;;;;;7.90;3.40;;;18.90;61.50;;;;;;10220283;28;20694;-69
2023/06/02 19:41:05;;;;;;;6.40;3.33;;;18.70;62.40;;;;;;10221654;28;20242;-69
2023/06/02 19:46:06;;;;;;;7.50;3.00;;;18.60;63.10;;;;;;10219042;28;20731;-69
2023/06/02 19:51:06;;;;;;;5.23;2.97;;;18.50;64.20;;;;;;10226710;28;20872;-70
2023/06/02 19:56:07;;;;;;;10.43;3.00;;;18.40;64.80;;;;;;10218518;28;20802;-70
2023/06/02 20:01:11;;;;;;;6.80;3.20;;;18.30;65.20;;;;;;10222358;28;20224;-70
2023/06/02 20:06:12;;;;;;;5.10;2.73;;;18.20;65.80;;;;;;10219855;28;20219;-69
2023/06/02 20:11:12;;;;;;;5.47;2.90;;;18.20;66.40;;;;;;10223712;28;20246;-70
2023/06/02 20:16:16;;;;;;;8.90;3.17;;;18.00;67.10;;;;;;10220340;28;20254;-70
2023/06/02 20:21:16;;;;;;;7.83;3.03;;;17.90;67.80;;;;;;10223612;28;20226;-70
2023/06/02 20:26:17;;;;;;;6.00;3.00;;;17.90;68.50;;;;;;10219910;28;20643;-69
2023/06/02 20:31:17;;;;;;;9.33;2.93;;;17.80;69.10;;;;;;10232087;28;20624;-71
2023/06/02 20:36:19;;;;;;;7.20;2.90;;;17.60;69.60;;;;;;10226849;28;20223;-70
2023/06/02 20:41:21;;;;;;;5.77;2.63;;;17.60;70.20;;;;;;10237645;28;20262;-69
2023/06/02 20:46:21;;;;;;;5.67;2.97;;;17.50;70.80;;;;;;10222172;28;20679;-70
2023/06/02 20:51:22;;;;;;;9.50;3.17;;;17.40;71.20;;;;;;10229289;28;20223;-69
2023/06/02 20:56:23;;;;;;;7.40;3.27;;;17.30;71.60;;;;;;10228096;28;20226;-70
2023/06/02 21:01:24;;;;;;;9.77;3.27;;;17.30;72.00;;;;;;10222071;28;20227;-70
2023/06/02 21:06:25;;;;;;;8.53;3.13;;;17.20;72.20;;;;;;10235063;28;20300;-70
2023/06/02 21:11:25;;;;;;;14.53;3.40;;;17.20;72.50;;;;;;10229264;28;20301;-68
2023/06/02 21:16:28;;;;;;;8.63;3.40;;;17.10;72.90;;;;;;10241033;28;20242;-69
2023/06/02 21:21:31;;;;;;;11.37;3.03;;;17.00;73.20;;;;;;10220226;28;20882;-70
2023/06/02 21:26:32;;;;;;;9.00;3.33;;;16.90;73.60;;;;;;10220345;28;20273;-71
2023/06/02 21:31:33;;;;;;;10.03;3.23;;;16.80;73.90;;;;;;10229750;28;20277;-70
2023/06/02 21:36:35;;;;;;;14.10;3.20;;;16.80;74.40;;;;;;10220124;28;20223;-70
2023/06/02 21:41:36;;;;;;;7.23;2.57;;;16.70;74.70;;;;;;10225800;28;20875;-70
2023/06/02 21:46:36;;;;;;;6.77;2.70;;;16.60;75.20;;;;;;10227757;28;20220;-69
2023/06/02 21:51:40;;;;;;;9.83;2.87;;;16.50;75.50;;;;;;10225899;28;20747;-69
2023/06/02 21:56:43;;;;;;;9.17;2.57;;;16.40;76.00;;;;;;10249011;28;20214;-69
2023/06/02 22:01:44;;;;;;;8.50;2.87;;;16.30;76.40;;;;;;10230445;28;20220;-69
2023/06/02 22:06:44;;;;;;;6.63;2.90;;;16.20;76.70;;;;;;10232172;28;20250;-69
2023/06/02 22:11:45;;;;;;;9.17;2.80;;;16.20;77.20;;;;;;10219812;28;20232;-70
2023/06/02 22:16:45;;;;;;;8.43;2.93;;;16.10;77.50;;;;;;10224050;28;20277;-69
2023/06/02 22:21:52;;;;;;;8.03;3.00;;;16.00;78.00;;;;;;10220069;28;20224;-69
2023/06/02 22:26:53;;;;;;;9.53;2.87;;;15.90;78.30;;;;;;10223198;28;20267;-70
2023/06/02 22:31:53;;;;;;;7.10;2.83;;;15.80;78.60;;;;;;10227305;28;20699;-69
2023/06/02 22:36:57;;;;;;;8.07;3.00;;;15.80;79.10;;;;;;10226472;28;20207;-69
2023/06/02 22:41:57;;;;;;;7.07;2.50;;;15.70;79.60;;;;;;10227585;28;20261;-71
2023/06/02 22:46:59;;;;;;;7.93;2.93;;;15.60;79.90;;;;;;10228955;28;20224;-70
2023/06/02 22:52:00;;;;;;;7.33;3.33;;;15.50;80.40;;;;;;10227958;28;20288;-69
2023/06/02 22:57:00;;;;;;;6.17;2.47;;;15.40;80.90;;;;;;10221342;28;21004;-69
2023/06/02 23:02:01;;;;;;;8.80;3.00;;;15.30;81.40;;;;;;10226661;28;20293;-69
2023/06/02 23:07:02;;;;;;;6.17;2.53;;;15.30;82.00;;;;;;10221157;28;20227;-68
2023/06/02 23:12:03;;;;;;;7.63;2.60;;;15.20;82.40;;;;;;10220294;28;20705;-70
2023/06/02 23:17:04;;;;;;;10.90;3.07;;;15.10;83.80;;;;;;10220256;28;20246;-69
2023/06/02 23:22:08;;;;;;;12.43;3.20;;;15.00;83.50;;;;;;10221693;28;20262;-70
2023/06/02 23:27:08;;;;;;;8.47;3.20;;;15.00;83.90;;;;;;10227150;28;20232;-69
2023/06/02 23:32:09;;;;;;;8.37;2.90;;;14.90;84.40;;;;;;10220754;28;20673;-69
2023/06/02 23:37:09;;;;;;;10.03;2.80;;;14.80;84.80;;;;;;10219619;28;20227;-69
2023/06/02 23:42:10;;;;;;;8.57;2.90;;;14.70;85.30;;;;;;10222431;28;20328;-69
2023/06/02 23:47:16;;;;;;;7.00;2.80;;;14.60;85.80;;;;;;10226520;28;20449;-69
2023/06/02 23:52:21;;;;;;;9.57;3.13;;;14.60;86.40;;;;;;10227736;28;20754;-68
2023/06/02 23:57:21;;;;;;;7.90;2.80;;;14.50;86.80;;;;;;10221814;28;20215;-69
